world map with HGN marked

HGN - Airport

This information may not be accurate or current and is not valid for navigation or flight planning. No warranty of fitness for any purpose is made or implied.

flag of Thailand

Donate via PayPal

Additional information is available on the NEW Great Circle Mapper

Location
City:  Mae Hong Son, Mae Hong Son, Thailand
ICAO / IATA:VTCH / HGN

Details
Type:Airport (Aerodrome, Airfield)
Latitude:19°18'06"N (19.301667)
Longitude:97°58'30"E (97.975000)
Datum:WGS 1984
Elevation:929 ft (283 m)
Runways:1
Longest:6560 × 148 ft (1999 × 45 m)

Time
Timezone:UTC+7 (DST+9)
Local Time:

Weather
METAR:VTCH  041200Z 11007KT 360V140 CAVOK 25/15 Q1012 NOSIG
TAF:VTCH  041100Z 0412/0512 18005KT 9999 FEW025 BECMG 0421/0423 0800 FG BECMG 0502/0504 9999 NSW

Related Locations
Nearby:
Farthest:SCFX: 11934 mi / 19206 km
Isla San Félix, Desventuradas Islands, VS, CL

Find:

   beyond  
but within

Other Information
Maps:
Sources:

  


 


Great Circle Mapper   Great Circle Mapper
Great Circle Mapper FAQ   Great Circle Mapper FAQ
  Karl's Home Page
KLS²   KLS² Home
   GC on Facebook
Airlines of the World   Airlines of the World
Donate via PayPal


Copyright © 2004-2019, Karl L. Swartz. All rights reserved.
All trademarks mentioned herein belong to their respective owners.

Please see credits for attribution and copyright information.

Karl Swartz <karl@kls2.com>
  Powered by FreeBSD
Valid HTML 4.01!
Labeled with ICRA
hCard Microformat
Geo Microformat